createdAt,value
2018-12-14T00:00:17.859Z,13.40
2018-12-14T00:01:23.045Z,13.35
2018-12-14T00:02:28.129Z,12.00
2018-12-14T00:03:31.370Z,12.70
2018-12-14T00:04:34.614Z,12.70
2018-12-14T00:05:37.879Z,13.80
2018-12-14T00:06:41.130Z,11.97
2018-12-14T00:07:44.371Z,12.25
2018-12-14T00:08:47.633Z,14.13
2018-12-14T00:09:50.878Z,12.53
2018-12-14T00:10:54.139Z,14.07
2018-12-14T00:11:57.395Z,12.82
2018-12-14T00:13:00.757Z,13.18
2018-12-14T00:14:04.180Z,12.98
2018-12-14T00:15:08.105Z,13.05
2018-12-14T00:16:11.456Z,11.97
2018-12-14T00:17:14.720Z,13.30
2018-12-14T00:18:17.976Z,13.03
2018-12-14T00:19:21.231Z,13.30
2018-12-14T00:20:24.482Z,13.20
2018-12-14T00:21:28.067Z,15.00
2018-12-14T00:22:31.293Z,13.40
2018-12-14T00:23:34.610Z,14.27
2018-12-14T00:24:37.883Z,12.73
2018-12-14T00:25:41.159Z,13.00
2018-12-14T00:26:44.419Z,13.63
2018-12-14T00:27:47.659Z,11.80
2018-12-14T00:28:51.010Z,13.00
2018-12-14T00:29:54.631Z,13.67
2018-12-14T00:30:57.900Z,11.90
2018-12-14T00:32:01.126Z,12.67
2018-12-14T00:33:04.379Z,12.07
2018-12-14T00:34:07.618Z,14.35
2018-12-14T00:35:10.990Z,13.73
2018-12-14T00:36:14.267Z,15.10
2018-12-14T00:37:17.613Z,13.07
2018-12-14T00:38:20.939Z,13.87
2018-12-14T00:39:24.180Z,13.60
2018-12-14T00:40:27.420Z,13.28
2018-12-14T00:41:30.698Z,13.50
2018-12-14T00:42:34.034Z,13.78
2018-12-14T00:43:37.320Z,12.20
2018-12-14T00:44:40.582Z,12.93
2018-12-14T00:45:43.896Z,12.40
2018-12-14T00:46:47.192Z,12.98
2018-12-14T00:47:50.424Z,14.03
2018-12-14T00:48:53.671Z,13.15
2018-12-14T00:49:56.914Z,13.98
2018-12-14T00:51:00.219Z,13.70
2018-12-14T00:52:03.488Z,13.32
2018-12-14T00:53:06.780Z,13.40
2018-12-14T00:54:10.023Z,14.07
2018-12-14T00:55:13.325Z,13.07
2018-12-14T00:56:16.558Z,13.10
2018-12-14T00:57:19.798Z,14.93
2018-12-14T00:58:23.081Z,13.50
2018-12-14T00:59:26.314Z,13.17
2018-12-14T01:00:29.576Z,12.55
2018-12-14T01:01:33.687Z,12.93
2018-12-14T01:02:36.952Z,13.23
2018-12-14T01:03:40.178Z,12.30
2018-12-14T01:04:45.330Z,13.88
2018-12-14T01:05:48.583Z,12.70
2018-12-14T01:06:51.808Z,14.45
2018-12-14T01:07:55.098Z,11.87
2018-12-14T01:08:58.463Z,13.63
2018-12-14T01:10:01.757Z,12.95
2018-12-14T01:11:05.138Z,11.93
2018-12-14T01:12:08.432Z,14.13
2018-12-14T01:13:11.746Z,14.43
2018-12-14T01:14:14.983Z,14.10
2018-12-14T01:15:19.211Z,12.53
2018-12-14T01:16:22.494Z,13.78
2018-12-14T01:17:25.744Z,14.43
2018-12-14T01:18:28.983Z,13.65
2018-12-14T01:19:32.242Z,14.55
2018-12-14T01:20:35.495Z,13.58
2018-12-14T01:21:38.762Z,14.47
2018-12-14T01:22:42.059Z,14.38
2018-12-14T01:23:45.319Z,15.25
2018-12-14T01:24:48.561Z,14.78
2018-12-14T01:25:51.807Z,14.23
2018-12-14T01:26:55.720Z,11.85
2018-12-14T01:27:58.999Z,13.47
2018-12-14T01:29:02.249Z,14.58
2018-12-14T01:30:06.724Z,14.55
2018-12-14T01:31:09.987Z,14.00
2018-12-14T01:32:13.645Z,15.87
2018-12-14T01:33:16.886Z,13.40
2018-12-14T01:34:20.126Z,15.50
2018-12-14T01:35:23.420Z,15.03
2018-12-14T01:36:26.777Z,14.23
2018-12-14T01:37:30.002Z,13.30
2018-12-14T01:38:33.292Z,12.70
2018-12-14T01:39:36.590Z,13.63
2018-12-14T01:40:39.871Z,14.00
2018-12-14T01:41:43.110Z,15.28
2018-12-14T01:42:46.367Z,13.72
2018-12-14T01:43:49.620Z,13.77
2018-12-14T01:44:52.897Z,13.47
2018-12-14T01:45:56.219Z,15.50
2018-12-14T01:46:59.464Z,15.33
2018-12-14T01:48:02.702Z,14.43
2018-12-14T01:49:05.940Z,13.65
2018-12-14T01:50:09.421Z,13.58
2018-12-14T01:51:12.802Z,15.30
2018-12-14T01:52:16.097Z,14.50
2018-12-14T01:53:19.358Z,13.65
2018-12-14T01:54:22.616Z,14.63
2018-12-14T01:55:25.936Z,14.73
2018-12-14T01:56:29.198Z,13.10
2018-12-14T01:57:32.542Z,14.23
2018-12-14T01:58:35.808Z,13.68
2018-12-14T01:59:39.111Z,14.98
2018-12-14T02:00:43.005Z,14.53
2018-12-14T02:01:46.244Z,13.33
2018-12-14T02:02:49.530Z,14.03
2018-12-14T02:03:52.778Z,14.33
2018-12-14T02:04:56.113Z,13.70
2018-12-14T02:05:59.398Z,14.50
2018-12-14T02:08:24.126Z,14.07
2018-12-14T02:09:33.303Z,14.07
2018-12-14T02:10:42.459Z,12.75
2018-12-14T02:11:45.698Z,13.98
2018-12-14T02:12:49.006Z,14.35
2018-12-14T02:13:52.276Z,15.35
2018-12-14T02:14:55.569Z,13.70
2018-12-14T02:15:58.826Z,12.20
2018-12-14T02:17:02.172Z,12.98
2018-12-14T02:18:05.686Z,14.18
2018-12-14T02:19:08.960Z,12.63
2018-12-14T02:20:12.262Z,13.67
2018-12-14T02:21:15.533Z,13.37
2018-12-14T02:22:18.783Z,15.48
2018-12-14T02:23:22.028Z,13.17
2018-12-14T02:24:25.365Z,13.17
2018-12-14T02:25:28.600Z,14.37
2018-12-14T02:26:31.862Z,13.73
2018-12-14T02:27:35.201Z,13.45
2018-12-14T02:28:38.424Z,13.70
2018-12-14T02:29:41.696Z,12.63
2018-12-14T02:30:45.169Z,12.50
2018-12-14T02:31:48.609Z,12.20
2018-12-14T02:32:51.850Z,12.97
2018-12-14T02:33:55.090Z,14.00
2018-12-14T02:34:59.170Z,12.68
2018-12-14T02:36:02.483Z,12.33
2018-12-14T02:37:05.726Z,12.37
2018-12-14T02:38:08.966Z,11.90
2018-12-14T02:39:12.216Z,13.13
2018-12-14T02:40:15.449Z,13.13
2018-12-14T02:41:18.730Z,13.30
2018-12-14T02:42:22.364Z,12.37
2018-12-14T02:43:25.751Z,11.33
2018-12-14T02:44:28.973Z,11.70
2018-12-14T02:45:32.210Z,12.33
2018-12-14T02:46:35.474Z,13.40
2018-12-14T02:47:38.700Z,11.75
2018-12-14T02:48:42.907Z,12.85
2018-12-14T02:49:46.200Z,13.48
2018-12-14T02:50:49.444Z,12.93
2018-12-14T02:51:52.720Z,12.03
2018-12-14T02:52:55.996Z,11.12
2018-12-14T02:53:59.277Z,12.17
2018-12-14T02:55:02.967Z,10.60
2018-12-14T02:56:06.202Z,11.97
2018-12-14T02:57:09.438Z,12.57
2018-12-14T02:58:12.677Z,11.10
2018-12-14T02:59:15.950Z,12.10
2018-12-14T03:00:19.281Z,13.00
2018-12-14T03:01:22.648Z,13.00
2018-12-14T03:02:25.874Z,14.63
2018-12-14T03:03:29.121Z,11.50
2018-12-14T03:04:32.486Z,11.93
2018-12-14T03:05:35.765Z,11.57
2018-12-14T03:06:39.006Z,12.10
2018-12-14T03:07:42.320Z,12.20
2018-12-14T03:08:45.575Z,11.90
2018-12-14T03:09:48.901Z,11.00
2018-12-14T03:10:52.123Z,11.13
2018-12-14T03:11:55.369Z,11.73
2018-12-14T03:12:58.610Z,12.70
2018-12-14T03:14:01.842Z,13.03
2018-12-14T03:15:05.526Z,12.20
2018-12-14T03:16:08.939Z,11.47
2018-12-14T03:17:12.486Z,13.18
2018-12-14T03:18:16.427Z,12.20
2018-12-14T03:19:19.666Z,11.35
2018-12-14T03:20:22.896Z,12.20
2018-12-14T03:21:26.149Z,11.57
2018-12-14T03:22:29.432Z,12.82
2018-12-14T03:23:32.672Z,12.07
2018-12-14T03:24:35.988Z,12.80
2018-12-14T03:25:39.306Z,12.60
2018-12-14T03:26:42.537Z,12.33
2018-12-14T03:27:45.791Z,11.78
2018-12-14T03:28:49.895Z,14.20
2018-12-14T03:29:53.145Z,11.80
2018-12-14T03:30:56.409Z,10.50
2018-12-14T03:31:59.809Z,12.87
2018-12-14T03:33:03.504Z,12.60
2018-12-14T03:34:06.745Z,14.00
2018-12-14T03:35:10.062Z,11.93
2018-12-14T03:36:13.318Z,13.10
2018-12-14T03:37:16.556Z,11.40
2018-12-14T03:38:19.818Z,10.97
2018-12-14T03:39:23.056Z,13.27
2018-12-14T03:40:26.318Z,13.30
2018-12-14T03:41:29.566Z,13.15
2018-12-14T03:42:34.622Z,12.27
2018-12-14T03:43:38.101Z,12.20
2018-12-14T03:44:41.332Z,13.73
2018-12-14T03:45:44.577Z,13.63
2018-12-14T03:46:47.823Z,11.53
2018-12-14T03:47:51.118Z,13.20
2018-12-14T03:48:54.446Z,12.00
2018-12-14T03:49:57.681Z,12.93
2018-12-14T03:51:01.031Z,13.40
2018-12-14T03:52:04.283Z,13.67
2018-12-14T03:53:07.538Z,14.90
2018-12-14T03:54:10.892Z,12.05
2018-12-14T03:55:14.134Z,11.70
2018-12-14T03:56:17.390Z,12.40
2018-12-14T03:57:20.762Z,12.73
2018-12-14T03:58:24.030Z,12.47
2018-12-14T03:59:27.275Z,13.03
2018-12-14T04:00:30.656Z,12.47
2018-12-14T04:01:34.762Z,13.72
2018-12-14T04:02:38.026Z,13.03
2018-12-14T04:03:41.445Z,11.93
2018-12-14T04:04:44.734Z,13.22
2018-12-14T04:05:48.041Z,12.47
2018-12-14T04:06:51.286Z,11.77
2018-12-14T04:07:54.564Z,12.75
2018-12-14T04:08:57.790Z,11.83
2018-12-14T04:10:01.032Z,12.13
2018-12-14T04:11:04.281Z,10.73
2018-12-14T04:12:07.534Z,11.63
2018-12-14T04:13:10.796Z,10.63
2018-12-14T04:14:14.025Z,11.77
2018-12-14T04:15:17.256Z,11.30
2018-12-14T04:16:20.536Z,10.43
2018-12-14T04:17:23.776Z,10.70
2018-12-14T04:18:27.167Z,11.83
2018-12-14T04:19:30.409Z,11.97
2018-12-14T04:20:33.624Z,11.85
2018-12-14T04:21:36.861Z,11.83
2018-12-14T04:22:40.215Z,12.25
2018-12-14T04:23:43.527Z,12.70
2018-12-14T04:24:46.778Z,11.10
2018-12-14T04:25:50.028Z,11.43
2018-12-14T04:26:53.286Z,9.87
2018-12-14T04:27:56.527Z,11.00
2018-12-14T04:28:59.828Z,11.37
2018-12-14T04:30:03.914Z,10.87
2018-12-14T04:31:07.209Z,12.30
2018-12-14T04:32:10.409Z,11.00
2018-12-14T04:33:13.813Z,11.22
2018-12-14T04:34:17.046Z,11.18
2018-12-14T04:35:20.309Z,12.30
2018-12-14T04:36:23.606Z,12.43
2018-12-14T04:37:26.875Z,12.28
2018-12-14T04:38:30.178Z,11.55
2018-12-14T04:39:33.510Z,12.43
2018-12-14T04:40:36.753Z,12.63
2018-12-14T04:41:40.016Z,12.33
2018-12-14T04:42:48.750Z,12.87
2018-12-14T04:43:48.523Z,12.07
2018-12-14T04:44:51.769Z,11.93
2018-12-14T04:45:55.336Z,10.63
2018-12-14T04:46:58.611Z,10.88
2018-12-14T04:48:01.845Z,10.63
2018-12-14T04:49:05.116Z,12.13
2018-12-14T04:50:08.350Z,11.90
2018-12-14T04:51:11.587Z,11.73
2018-12-14T04:52:14.857Z,10.73
2018-12-14T04:53:18.107Z,12.00
2018-12-14T04:54:21.338Z,11.48
2018-12-14T04:55:24.610Z,11.93
2018-12-14T04:56:27.856Z,13.10
2018-12-14T04:57:31.109Z,12.03
2018-12-14T04:58:34.359Z,11.65
2018-12-14T04:59:37.598Z,11.18
2018-12-14T05:00:40.839Z,11.60
2018-12-14T05:01:44.099Z,12.00
2018-12-14T05:02:47.337Z,10.45
2018-12-14T05:03:50.598Z,11.43
2018-12-14T05:04:53.859Z,11.05
2018-12-14T05:05:57.101Z,12.65
2018-12-14T05:07:00.437Z,12.25
2018-12-14T05:08:03.694Z,12.15
2018-12-14T05:09:06.951Z,11.28
2018-12-14T05:10:10.197Z,11.88
2018-12-14T05:11:13.435Z,11.78
2018-12-14T05:12:16.692Z,11.83
2018-12-14T05:13:19.955Z,10.63
2018-12-14T05:14:23.343Z,11.95
2018-12-14T05:15:26.657Z,10.37
2018-12-14T05:16:29.935Z,10.60
2018-12-14T05:17:33.253Z,11.17
2018-12-14T05:18:36.595Z,12.40
2018-12-14T05:19:39.894Z,11.07
2018-12-14T05:20:43.213Z,12.30
2018-12-14T05:21:46.616Z,12.37
2018-12-14T05:22:49.863Z,11.78
2018-12-14T05:23:53.140Z,12.23
2018-12-14T05:24:56.391Z,10.33
2018-12-14T05:25:59.630Z,11.37
2018-12-14T05:27:03.058Z,12.67
2018-12-14T05:28:06.275Z,11.57
2018-12-14T05:29:09.551Z,12.90
2018-12-14T05:30:13.036Z,12.63
2018-12-14T05:31:16.323Z,10.33
2018-12-14T05:32:19.587Z,12.30
2018-12-14T05:33:22.837Z,11.23
2018-12-14T05:34:26.102Z,12.53
2018-12-14T05:35:29.361Z,12.63
2018-12-14T05:36:32.644Z,11.73
2018-12-14T05:37:35.978Z,12.20
2018-12-14T05:38:39.316Z,11.03
2018-12-14T05:39:42.593Z,11.73
2018-12-14T05:40:46.481Z,12.00
2018-12-14T05:41:49.738Z,11.50
2018-12-14T05:42:53.058Z,12.63
2018-12-14T05:43:56.294Z,11.63
2018-12-14T05:44:59.538Z,12.60
2018-12-14T05:46:03.826Z,11.30
2018-12-14T05:47:07.094Z,11.90
2018-12-14T05:48:10.341Z,11.63
2018-12-14T05:49:14.373Z,11.40
2018-12-14T05:50:17.688Z,13.00
2018-12-14T05:51:20.920Z,11.88
2018-12-14T05:52:24.285Z,13.18
2018-12-14T05:53:27.508Z,14.43
2018-12-14T05:54:30.779Z,11.90
2018-12-14T05:55:34.027Z,12.23
2018-12-14T05:56:37.372Z,11.37
2018-12-14T05:57:40.667Z,12.17
2018-12-14T05:58:43.894Z,12.18
2018-12-14T05:59:47.174Z,11.22
2018-12-14T06:00:50.415Z,11.67
2018-12-14T06:01:53.710Z,12.45
2018-12-14T06:02:56.993Z,11.87
2018-12-14T06:04:00.264Z,12.47
2018-12-14T06:05:04.418Z,13.23
2018-12-14T06:06:07.709Z,12.37
2018-12-14T06:07:10.935Z,12.18
2018-12-14T06:08:14.202Z,10.93
2018-12-14T06:09:17.488Z,11.93
2018-12-14T06:10:20.829Z,11.67
2018-12-14T06:11:24.071Z,12.13
2018-12-14T06:12:27.333Z,11.67
2018-12-14T06:13:30.593Z,10.03
2018-12-14T06:14:33.996Z,11.35
2018-12-14T06:15:37.331Z,10.55
2018-12-14T06:16:40.573Z,11.90
2018-12-14T06:17:43.897Z,12.35
2018-12-14T06:18:47.167Z,13.25
2018-12-14T06:19:50.429Z,11.48
2018-12-14T06:20:53.856Z,11.70
2018-12-14T06:21:57.102Z,12.35
2018-12-14T06:23:00.378Z,11.28
2018-12-14T06:24:03.722Z,11.83
2018-12-14T06:25:07.008Z,12.07
2018-12-14T06:26:10.259Z,12.35
2018-12-14T06:27:13.710Z,12.90
2018-12-14T06:28:16.944Z,10.07
2018-12-14T06:29:20.361Z,11.30
2018-12-14T06:30:24.454Z,11.50
2018-12-14T06:31:27.719Z,11.53
2018-12-14T06:32:30.957Z,11.23
2018-12-14T06:33:34.266Z,11.18
2018-12-14T06:34:37.568Z,10.37
2018-12-14T06:35:40.833Z,11.22
2018-12-14T06:36:44.142Z,11.47
2018-12-14T06:37:47.408Z,12.05
2018-12-14T06:38:50.778Z,12.73
2018-12-14T06:39:54.046Z,11.03
2018-12-14T06:40:58.317Z,12.70
2018-12-14T06:42:02.251Z,12.17
2018-12-14T06:43:05.489Z,11.90
2018-12-14T06:44:08.753Z,12.20
2018-12-14T06:45:12.250Z,12.77
2018-12-14T06:46:15.628Z,11.53
2018-12-14T06:47:18.921Z,11.63
2018-12-14T06:48:22.216Z,11.80
2018-12-14T06:49:25.494Z,11.80
2018-12-14T06:50:30.354Z,11.18
2018-12-14T06:51:33.581Z,11.50
2018-12-14T06:52:36.858Z,10.80
2018-12-14T06:53:40.135Z,11.63
2018-12-14T06:54:43.410Z,10.75
2018-12-14T06:55:46.761Z,11.63
2018-12-14T06:56:50.015Z,12.58
2018-12-14T06:57:53.331Z,12.55
2018-12-14T06:58:56.590Z,10.48
2018-12-14T06:59:59.848Z,11.87
2018-12-14T07:01:03.183Z,11.10
2018-12-14T07:02:06.382Z,13.00
2018-12-14T07:03:09.711Z,10.93
2018-12-14T07:04:12.973Z,11.13
2018-12-14T07:05:16.265Z,11.30
2018-12-14T07:06:19.523Z,11.15
2018-12-14T07:07:23.138Z,10.63
2018-12-14T07:08:26.411Z,11.28
2018-12-14T07:09:29.722Z,10.43
2018-12-14T07:10:33.030Z,11.40
2018-12-14T07:11:36.333Z,11.10
2018-12-14T07:12:40.764Z,11.00
2018-12-14T07:13:44.498Z,11.73
2018-12-14T07:14:47.784Z,10.23
2018-12-14T07:15:51.662Z,12.63
2018-12-14T07:16:54.896Z,12.53
2018-12-14T07:17:58.253Z,11.23
2018-12-14T07:19:01.671Z,11.50
2018-12-14T07:20:06.093Z,12.20
2018-12-14T07:21:09.631Z,11.00
2018-12-14T07:22:14.290Z,10.68
2018-12-14T07:23:17.536Z,11.25
2018-12-14T07:24:20.807Z,10.55
2018-12-14T07:25:24.107Z,10.43
2018-12-14T07:26:27.497Z,10.70
2018-12-14T07:27:30.859Z,11.10
2018-12-14T07:28:34.164Z,9.60
2018-12-14T07:29:38.681Z,12.63
2018-12-14T07:30:41.951Z,10.25
2018-12-14T07:31:45.225Z,11.75
2018-12-14T07:32:48.461Z,12.00
2018-12-14T07:33:51.699Z,12.40
2018-12-14T07:34:55.089Z,11.70
2018-12-14T07:35:59.369Z,10.57
2018-12-14T07:37:02.634Z,11.37
2018-12-14T07:38:05.984Z,11.70
2018-12-14T07:39:09.194Z,10.20
2018-12-14T07:40:12.956Z,11.60
2018-12-14T07:41:16.938Z,10.30
2018-12-14T07:42:20.478Z,12.03
2018-12-14T07:43:28.308Z,12.47
2018-12-14T07:44:29.502Z,11.78
2018-12-14T07:45:32.850Z,12.10
2018-12-14T07:46:36.169Z,11.13
2018-12-14T07:47:39.387Z,10.43
2018-12-14T07:48:42.668Z,10.73
2018-12-14T07:49:45.982Z,10.47
2018-12-14T07:50:49.372Z,10.87
2018-12-14T07:51:52.648Z,11.23
2018-12-14T07:52:57.958Z,10.90
2018-12-14T07:54:01.263Z,11.40
2018-12-14T07:55:04.679Z,10.65
2018-12-14T07:56:07.950Z,9.68
2018-12-14T07:57:11.845Z,11.60
2018-12-14T07:58:15.111Z,10.30
2018-12-14T07:59:19.345Z,11.90
2018-12-14T08:00:23.653Z,10.32
2018-12-14T08:01:26.974Z,10.78
2018-12-14T08:02:30.396Z,13.08
2018-12-14T08:03:33.667Z,12.43
2018-12-14T08:04:36.978Z,11.57
2018-12-14T08:05:40.232Z,10.23
2018-12-14T08:06:43.500Z,9.27
2018-12-14T08:07:46.728Z,9.30
2018-12-14T08:08:51.373Z,10.93
2018-12-14T08:09:55.028Z,9.87
2018-12-14T08:10:58.310Z,10.13
2018-12-14T08:12:02.347Z,9.40
2018-12-14T08:13:05.681Z,9.67
2018-12-14T08:14:09.370Z,9.03
2018-12-14T08:15:14.162Z,9.80
2018-12-14T08:16:17.371Z,9.83
2018-12-14T08:17:21.458Z,9.77
2018-12-14T08:18:24.705Z,10.53
2018-12-14T08:19:27.995Z,10.35
2018-12-14T08:20:32.178Z,10.43
2018-12-14T08:21:35.459Z,11.20
2018-12-14T08:22:38.721Z,10.15
2018-12-14T08:23:42.177Z,10.30
2018-12-14T08:24:45.511Z,10.93
2018-12-14T08:25:48.785Z,10.33
2018-12-14T08:26:52.336Z,11.53
2018-12-14T08:27:55.546Z,10.30
2018-12-14T08:28:59.043Z,10.90
2018-12-14T08:30:02.290Z,9.53
2018-12-14T08:31:05.641Z,10.35
2018-12-14T08:32:08.927Z,10.13
2018-12-14T08:33:13.409Z,10.88
2018-12-14T08:34:16.813Z,10.13
2018-12-14T08:35:20.065Z,9.40
2018-12-14T08:36:23.302Z,10.40
2018-12-14T08:37:26.568Z,11.15
2018-12-14T08:38:29.817Z,9.83
2018-12-14T08:39:33.092Z,11.70
2018-12-14T08:40:36.329Z,10.85
2018-12-14T08:41:39.604Z,10.57
2018-12-14T08:42:42.890Z,10.73
2018-12-14T08:43:46.150Z,13.53
2018-12-14T08:44:49.779Z,11.03
2018-12-14T08:45:53.011Z,10.63
2018-12-14T08:46:56.298Z,12.23
2018-12-14T08:47:59.608Z,11.30
2018-12-14T08:49:02.977Z,10.97
2018-12-14T08:50:06.321Z,9.98
2018-12-14T08:51:09.626Z,10.37
2018-12-14T08:52:12.859Z,10.78
2018-12-14T08:53:16.276Z,11.83
2018-12-14T08:54:20.238Z,11.20
2018-12-14T08:55:23.506Z,10.77
2018-12-14T08:56:26.762Z,10.73
2018-12-14T08:57:30.081Z,11.00
2018-12-14T08:58:34.821Z,9.60
2018-12-14T08:59:38.064Z,10.85
2018-12-14T09:00:41.359Z,11.67
2018-12-14T09:01:44.665Z,9.37
2018-12-14T09:02:48.465Z,10.60
2018-12-14T09:03:51.830Z,11.75
2018-12-14T09:04:55.099Z,10.23
2018-12-14T09:05:58.384Z,10.45
2018-12-14T09:07:01.673Z,11.75
2018-12-14T09:08:04.945Z,10.30
2018-12-14T09:09:08.261Z,11.20
2018-12-14T09:10:12.720Z,10.60
2018-12-14T09:11:15.976Z,11.93
2018-12-14T09:12:19.259Z,11.18
2018-12-14T09:13:24.205Z,9.68
2018-12-14T09:14:27.567Z,11.12
2018-12-14T09:15:31.545Z,12.98
2018-12-14T09:16:34.826Z,11.73
2018-12-14T09:17:38.058Z,10.63
2018-12-14T09:18:41.347Z,10.70
2018-12-14T09:19:44.820Z,10.48
2018-12-14T09:20:48.041Z,9.83
2018-12-14T09:21:51.974Z,11.10
2018-12-14T09:22:55.300Z,11.70
2018-12-14T09:23:58.546Z,10.72
2018-12-14T09:25:03.316Z,11.97
2018-12-14T09:26:06.615Z,10.45
2018-12-14T09:27:09.898Z,10.60
2018-12-14T09:28:13.146Z,10.03
2018-12-14T09:29:16.379Z,10.47
2018-12-14T09:30:19.666Z,9.68
2018-12-14T09:31:22.998Z,11.60
2018-12-14T09:32:26.297Z,11.70
2018-12-14T09:33:29.575Z,10.80
2018-12-14T09:34:32.811Z,11.78
2018-12-14T09:35:36.152Z,10.83
2018-12-14T09:36:39.491Z,9.10
2018-12-14T09:37:42.759Z,9.45
2018-12-14T09:38:46.065Z,9.98
2018-12-14T09:39:49.361Z,10.00
2018-12-14T09:40:52.679Z,12.15
2018-12-14T09:41:55.930Z,10.70
2018-12-14T09:42:59.152Z,12.03
2018-12-14T09:44:02.485Z,10.13
2018-12-14T09:45:07.162Z,9.75
2018-12-14T09:46:10.606Z,10.45
2018-12-14T09:47:13.879Z,10.00
2018-12-14T09:48:17.244Z,9.53
2018-12-14T09:49:20.581Z,10.43
2018-12-14T09:50:25.155Z,11.47
2018-12-14T09:51:29.476Z,10.90
2018-12-14T09:52:33.106Z,11.80
2018-12-14T09:53:36.296Z,11.23
2018-12-14T09:54:40.612Z,10.43
2018-12-14T09:55:43.850Z,9.87
2018-12-14T09:56:47.092Z,9.90
2018-12-14T09:57:50.368Z,9.80
2018-12-14T09:58:53.621Z,9.40
2018-12-14T09:59:56.886Z,9.70
2018-12-14T10:01:00.126Z,9.73
2018-12-14T10:02:03.523Z,9.67
2018-12-14T10:03:06.761Z,11.17
2018-12-14T10:04:11.009Z,9.70
2018-12-14T10:05:14.254Z,9.23
2018-12-14T10:06:18.560Z,10.13
2018-12-14T10:07:21.832Z,10.90
2018-12-14T10:08:25.279Z,10.72
2018-12-14T10:09:28.570Z,9.48
2018-12-14T10:10:31.844Z,10.72
2018-12-14T10:11:35.109Z,11.38
2018-12-14T10:12:38.364Z,11.43
2018-12-14T10:13:41.686Z,11.20
2018-12-14T10:14:44.940Z,11.50
2018-12-14T10:15:48.402Z,10.85
2018-12-14T10:16:51.684Z,10.00
2018-12-14T10:17:54.925Z,10.65
2018-12-14T10:18:58.553Z,10.57
2018-12-14T10:20:01.786Z,10.10
2018-12-14T10:21:05.080Z,11.03
2018-12-14T10:22:08.373Z,10.77
2018-12-14T10:23:11.661Z,10.13
2018-12-14T10:24:14.922Z,11.00
2018-12-14T10:25:18.214Z,9.87
2018-12-14T10:26:21.490Z,10.60
2018-12-14T10:27:24.746Z,10.60
2018-12-14T10:28:28.116Z,10.47
2018-12-14T10:29:31.362Z,11.67
2018-12-14T10:30:34.615Z,11.97
2018-12-14T10:31:37.888Z,10.47
2018-12-14T10:32:41.108Z,9.48
2018-12-14T10:33:44.394Z,10.00
2018-12-14T10:34:47.645Z,10.57
2018-12-14T10:35:51.002Z,10.33
2018-12-14T10:36:54.254Z,10.75
2018-12-14T10:37:57.517Z,10.70
2018-12-14T10:39:00.752Z,10.53
2018-12-14T10:40:08.469Z,11.07
2018-12-14T10:41:11.717Z,11.68
2018-12-14T10:42:15.200Z,10.63
2018-12-14T10:43:18.660Z,9.53
2018-12-14T10:44:22.041Z,10.72
2018-12-14T10:45:26.370Z,9.05
2018-12-14T10:46:29.627Z,10.40
2018-12-14T10:47:32.907Z,10.55
2018-12-14T10:48:36.263Z,10.35
2018-12-14T10:49:39.515Z,8.85
2018-12-14T10:50:43.181Z,9.45
2018-12-14T10:51:46.537Z,11.33
2018-12-14T10:52:49.810Z,10.77
2018-12-14T10:53:53.066Z,10.13
2018-12-14T10:54:56.486Z,10.47
2018-12-14T10:55:59.849Z,10.13
2018-12-14T10:57:03.078Z,10.73
2018-12-14T10:58:06.393Z,12.83
2018-12-14T10:59:09.649Z,11.47
2018-12-14T11:01:55.998Z,10.75
2018-12-14T11:02:59.248Z,10.10
2018-12-14T11:04:02.503Z,10.82
2018-12-14T11:05:05.808Z,10.32
2018-12-14T11:06:09.094Z,9.03
2018-12-14T11:07:12.355Z,10.55
2018-12-14T11:08:15.606Z,9.88
2018-12-14T11:09:18.858Z,9.80
2018-12-14T11:10:22.127Z,10.43
2018-12-14T11:11:25.395Z,10.03
2018-12-14T11:12:28.645Z,10.93
2018-12-14T11:13:31.937Z,10.63
2018-12-14T11:14:35.150Z,11.30
2018-12-14T11:15:38.432Z,10.33
2018-12-14T11:16:41.658Z,10.40
2018-12-14T11:17:44.936Z,11.20
2018-12-14T11:18:48.196Z,11.23
2018-12-14T11:19:51.591Z,10.33
2018-12-14T11:20:54.837Z,11.40
2018-12-14T11:21:58.095Z,10.97
2018-12-14T11:23:01.425Z,11.37
2018-12-14T11:24:04.645Z,11.30
2018-12-14T11:25:08.005Z,11.33
2018-12-14T11:26:11.333Z,12.37
2018-12-14T11:27:14.661Z,11.33
2018-12-14T11:28:17.921Z,10.53
2018-12-14T11:29:21.166Z,10.13
2018-12-14T11:30:24.419Z,10.43
2018-12-14T11:31:27.701Z,10.40
2018-12-14T11:32:30.957Z,11.43
2018-12-14T11:33:34.585Z,10.27
2018-12-14T11:34:37.967Z,11.97
2018-12-14T11:35:41.665Z,11.73
2018-12-14T11:36:44.923Z,11.63
2018-12-14T11:37:48.281Z,9.80
2018-12-14T11:38:52.140Z,10.00
2018-12-14T11:39:55.394Z,10.68
2018-12-14T11:40:58.631Z,10.75
2018-12-14T11:42:01.941Z,10.10
2018-12-14T11:43:05.194Z,10.40
2018-12-14T11:44:09.372Z,9.73
2018-12-14T11:45:12.627Z,10.45
2018-12-14T11:46:15.859Z,10.67
2018-12-14T11:47:19.128Z,10.70
2018-12-14T11:48:23.199Z,10.73
2018-12-14T11:49:26.502Z,10.10
2018-12-14T11:50:29.876Z,10.37
2018-12-14T11:51:33.206Z,10.83
2018-12-14T11:52:36.448Z,10.77
2018-12-14T11:53:39.674Z,10.60
2018-12-14T11:54:42.927Z,10.18
2018-12-14T11:55:46.370Z,9.90
2018-12-14T11:56:49.698Z,10.50
2018-12-14T11:57:52.930Z,11.00
2018-12-14T11:58:56.262Z,11.20
2018-12-14T11:59:59.497Z,9.80
2018-12-14T12:01:02.757Z,10.70
2018-12-14T12:02:05.992Z,10.28
2018-12-14T12:03:09.258Z,10.07
2018-12-14T12:04:13.164Z,10.10
2018-12-14T12:05:16.409Z,10.48
2018-12-14T12:06:19.716Z,11.63
2018-12-14T12:07:23.874Z,11.90
2018-12-14T12:08:27.154Z,10.67
2018-12-14T12:09:30.419Z,11.95
2018-12-14T12:10:34.437Z,12.28
2018-12-14T12:11:37.936Z,12.75
2018-12-14T12:12:41.838Z,11.10
2018-12-14T12:13:46.037Z,11.47
2018-12-14T12:14:49.289Z,10.90
2018-12-14T12:15:52.535Z,9.65
2018-12-14T12:16:55.771Z,10.38
2018-12-14T12:17:59.010Z,10.40
2018-12-14T12:19:02.297Z,10.38
2018-12-14T12:20:06.260Z,11.35
2018-12-14T12:21:09.487Z,10.53
2018-12-14T12:22:12.726Z,9.77
2018-12-14T12:23:16.001Z,10.23
2018-12-14T12:24:19.404Z,10.65
2018-12-14T12:25:22.695Z,11.38
2018-12-14T12:26:25.971Z,10.65
2018-12-14T12:27:29.223Z,9.70
2018-12-14T12:28:32.488Z,11.80
2018-12-14T12:29:35.902Z,9.83
2018-12-14T12:30:39.273Z,10.30
2018-12-14T12:31:43.381Z,11.20
2018-12-14T12:32:48.090Z,12.37
2018-12-14T12:33:51.632Z,9.97
2018-12-14T12:34:55.054Z,9.13
2018-12-14T12:35:58.334Z,10.97
2018-12-14T12:37:01.702Z,10.77
2018-12-14T12:38:05.503Z,10.53
2018-12-14T12:39:10.311Z,9.80
2018-12-14T12:40:13.750Z,9.47
2018-12-14T12:41:17.261Z,11.12
2018-12-14T12:42:20.652Z,9.03
2018-12-14T12:43:23.906Z,9.53
2018-12-14T12:44:33.278Z,12.05
2018-12-14T12:45:32.553Z,9.63
2018-12-14T12:46:35.745Z,9.48
2018-12-14T12:47:42.820Z,10.58
2018-12-14T12:48:46.286Z,9.98
2018-12-14T12:49:49.540Z,10.60
2018-12-14T12:50:52.809Z,11.20
2018-12-14T12:51:56.062Z,10.30
2018-12-14T12:52:59.344Z,11.80
2018-12-14T12:54:02.587Z,11.53
2018-12-14T12:55:05.961Z,9.90
2018-12-14T12:56:09.773Z,9.53
2018-12-14T12:57:13.871Z,10.73
2018-12-14T12:58:17.131Z,10.50
2018-12-14T12:59:20.890Z,10.47
2018-12-14T13:00:24.217Z,9.43
2018-12-14T13:01:27.859Z,9.47
2018-12-14T13:02:31.392Z,9.90
2018-12-14T13:03:34.682Z,9.70
2018-12-14T13:04:38.913Z,10.37
2018-12-14T13:05:42.342Z,8.83
2018-12-14T13:06:45.612Z,11.03
2018-12-14T13:07:49.112Z,10.13
2018-12-14T13:08:52.391Z,9.80
2018-12-14T13:09:56.317Z,10.17
2018-12-14T13:10:59.584Z,10.13
2018-12-14T13:12:02.904Z,9.83
2018-12-14T13:13:06.327Z,9.80
2018-12-14T13:14:09.575Z,11.53
2018-12-14T13:15:12.822Z,12.07
2018-12-14T13:16:16.687Z,11.03
2018-12-14T13:17:20.031Z,11.22
2018-12-14T13:18:23.343Z,10.43
2018-12-14T13:19:26.693Z,11.97
2018-12-14T13:20:29.946Z,10.98
2018-12-14T13:21:33.284Z,11.40
2018-12-14T13:22:36.564Z,11.40
2018-12-14T13:23:39.833Z,11.73
2018-12-14T13:24:43.103Z,10.50
2018-12-14T13:25:46.924Z,10.87
2018-12-14T13:26:50.158Z,11.00
2018-12-14T13:27:53.429Z,9.17
2018-12-14T13:28:56.709Z,10.23
2018-12-14T13:29:59.972Z,10.03
2018-12-14T13:31:03.213Z,10.10
2018-12-14T13:32:06.493Z,10.93
2018-12-14T13:33:09.832Z,10.27
2018-12-14T13:34:13.091Z,10.33
2018-12-14T13:35:16.431Z,10.67
2018-12-14T13:36:19.747Z,10.37
2018-12-14T13:37:23.103Z,10.07
2018-12-14T13:38:26.344Z,9.90
2018-12-14T13:39:30.574Z,9.83
2018-12-14T13:40:33.831Z,9.03
2018-12-14T13:41:37.107Z,9.67
2018-12-14T13:42:40.360Z,11.13